Cross Country
2021 XC
| Date | Meet | Event | Result | Place | Rating | Difficulty | PR/SR Flags |
|---|---|---|---|---|---|---|---|
| 2021-11-14 | Laverne Gibson Course | 5000m | 19:18.7 | 480th · 2nd on team | 113.5 | +0.010 | ★CR CSR |
| 2021-10-23 | Hilliard Darby HS | 5000m | 17:55.3 | 30th · 3rd on team | 115.7 | -0.031 | ★PR ★CR SR CSR |
| 2021-10-23 | Hilliard Darby HS | 5000m | 17:55.3 | 30th · 3rd on team | 115.7 | -0.031 | |
| 2021-10-09 | Marion Harding HS | 5000m | 18:12 | 66th · 3rd on team | 115.4 | -0.029 | PR ★CR SR CSR |
| 2021-09-18 | Bloom Carroll HS | 5000m | 18:13.8 | 17th · 1st on team | 117.1 | -0.008 | PR ★CR ★R SR CSR RSR |
| 2021-09-11 | Watkins Memorial High School | 5000m | 18:27.9 | 52nd · 2nd on team | 113.2 | -0.028 | ★CR CSR |
| 2021-09-04 | Circleville HS | 5000m | 18:23.3 | 16th · 3rd on team | 113.8 | -0.016 | PR ★CR R SR CSR RSR |
| 2021-08-28 | Pickerington HS | 5000m | 19:07.1 | 51st · 4th on team | 112.0 | -0.025 | ★CR SR CSR RSR |
2020 XC
| Date | Meet | Event | Result | Place | Rating | Difficulty | PR/SR Flags |
|---|---|---|---|---|---|---|---|
| 2020-10-24 | Hilliard Darby HS | 5000m | 18:32.5 | 40th · 6th on team | 112.6 | -0.031 | PR CR R SR CSR RSR |
| 2020-09-19 | Camp Bobcat - Grandview Hts. | 5000m | 19:03.2 | 23rd · 8th on team | 111.8 | +0.004 | PR ★CR R SR CSR RSR |
| 2020-09-05 | Circleville HS | 5000m | 19:16.8 | 27th · 8th on team | 110.3 | -0.016 | PR CR R SR CSR RSR |
2019 XC
| Date | Meet | Event | Result | Place | Rating | Difficulty | PR/SR Flags |
|---|---|---|---|---|---|---|---|
| 2019-11-16 | Laverne Gibson Course | 5000m | 20:01.5 | 934th · 11th on team | 107.0 | +0.010 | PR CR R SR CSR RSR |
| 2019-09-21 | Dublin Jerome | 5000m | 20:03.3 | 58th · 2nd on team | 100.1 | -0.050 | PR ★CR R SR CSR RSR |
Track & Field
2022 TF
| Date | Meet | Event | Result | Place | Rating | Difficulty | PR/SR Flags |
|---|---|---|---|---|---|---|---|
| 2022-05-21 | OHSAA Central District - Division 2 | 3200m | 11:21.35 | 8th · 1st on team | 107.1 | -0.037 | |
| 2022-05-13 | Mid State League Buckeye Championships - Finals | 3200m | 10:54 | 6th · 2nd on team | 110.4 | -0.047 | ★PR SR RSR |
| 2022-04-29 | Milt Will Invitational | 1600m | 5:10.11 | 15th · 1st on team | 108.5 | -0.036 | ★PR SR |
| 2022-04-29 | Milt Will Invitational | 800m | 2:21.71 | 15th · 2nd on team | 106.6 | -0.036 | |
| 2022-04-26 | BC/BU/FCA/MP/NY | 800m | 2:19.91 | 8th · 5th on team | 108.9 | -0.035 | ★PR SR |
| 2022-04-23 | Bloom Carroll Invitational | 3200m | 11:14.19 | 3rd · 1st on team | 109.3 | -0.035 | |
| 2022-04-19 | London vs. Bloom Carroll | 800m | 2:31.97 | 10th · 7th on team | 101.2 | -0.032 | |
| 2022-04-19 | London vs. Bloom Carroll | 1600m | 5:13.5 | 2nd · 1st on team | 109.3 | -0.032 | |
| 2022-04-12 | DL #3- BC/FCA/GP/HT/MC | 1600m | 5:11.83 | 3rd · 3rd on team | 108.5 | -0.035 | PR SR |
| 2022-04-07 | Highland Invite | 800m | 2:26.6 | 14th · 1st on team | 104.0 | -0.028 | |
| 2022-04-05 | DL #2- BC/CV/FCA/TV | 3200m | 11:04.99 | 7th · 3rd on team | 109.7 | -0.035 | PR SR RSR |
| 2022-04-05 | Bloom-Carroll HS Quad Meet | 3200m | 11:04.99 | 7th · 3rd on team | 109.8 | -0.033 | RSR |
| 2022-03-29 | Bloom-Carroll HS Quad Meet | 800m | 2:22.31 | 8th · 5th on team | 106.6 | -0.033 | PR SR RSR |
| 2022-03-29 | DL #1- BC/FCA/FH/HT | 800m | 2:22.31 | 8th · 5th on team | 106.6 | -0.035 |
2021 TF
| Date | Meet | Event | Result | Place | Rating | Difficulty | PR/SR Flags |
|---|---|---|---|---|---|---|---|
| 2021-05-22 | OHSAA D2 Central District - Westerville North | 3200m | 11:28.17 | 11th · 2nd on team | 107.1 | -0.037 | |
| 2021-05-04 | Bloom Carroll- Logan Dual | 1600m | 5:16.35 | 3rd · 3rd on team | 107.5 | -0.035 | PR SR |
| 2021-04-27 | BC-BU-NY Tri | 3200m | 11:24.2 | 2nd · 1st on team | 108.7 | -0.030 | PR SR RSR |
| 2021-04-20 | Bloom Carroll- London Dual | 1600m | 5:30.83 | 5th · 4th on team | 102.7 | -0.035 | |
| 2021-04-20 | Bloom Carroll- London Dual | 800m | 2:25.74 | 5th · 4th on team | 104.5 | -0.035 | PR SR |
| 2021-04-13 | Diamond League #3 (BC-HT) | 1600m | 5:25.39 | 7th · 6th on team | 104.4 | -0.035 | PR SR |
| 2021-04-06 | Diamond League #2 (BC/HT/TV) | 3200m | 11:39.26 | 4th · 4th on team | 106.4 | -0.035 | PR SR RSR |
2019 TF
| Date | Meet | Event | Result | Place | Rating | Difficulty | PR/SR Flags |
|---|---|---|---|---|---|---|---|
| 2019-05-09 | MSL Buckeye JV Meet | 200m | 27.74 | 7th · 7th on team | — | -0.035 | ★PR SR |
| 2019-05-09 | MSL Buckeye JV Meet | 100m | 13.94 | 13th · 11th on team | — | -0.035 | |
| 2019-05-01 | BC-CA Dual | 100m | 13.34 | 15th · 9th on team | — | -0.035 | ★PR SR |
| 2019-04-24 | BC-BU-CSG-NY Quad | 100m | 13.54 | 15th · 11th on team | — | -0.035 | PR SR |
| 2019-04-24 | BC-BU-CSG-NY Quad | 200m | 28.14 | 15th · 12th on team | — | -0.035 | PR SR |
| 2019-04-16 | BC-Fair-Lon-Mech Quad | 100m | 13.74 | 9th · 9th on team | — | -0.046 | PR SR |
| 2019-04-16 | BC-Fair-Lon-Mech Quad | 200m | 28.24 | 8th · 8th on team | — | -0.046 | PR SR |
| 2019-04-02 | Logan Elm/Bloom Carroll Dual | 100m | 13.98 | 12th · 7th on team | — | -0.036 | PR SR |
| 2019-04-02 | Logan Elm/Bloom Carroll Dual | 200m | 29.24 | 18th · 10th on team | — | -0.036 | PR SR |
| 2019-03-26 | AC-BC Dual | 100m | 14.84 | 24th · 17th on team | — | -0.039 | PR SR |
| 2019-03-26 | AC-BC Dual | 200m | 29.54 | 16th · 10th on team | — | -0.039 | PR SR |